Maldives Meteorological Service

TAFS

Station TAF
VRMM
VRMM 222300Z 2300/2406 25010KT 9999 FEW018 TEMPO 2303/2309 FEW018CB=
VRMH
VRMH 222300Z 2300/2424 29012KT 9999 FEW018 TEMPO 2303/2309 5000 –SHRA FEW017CB=
VRMK
VRMK 222300Z 2300/2424 20005KT 9999 FEW018 TEMPO 2303/2309 FEW018CB=
VRMT
VRMT 222300Z 2300/2424 27005KT 9999 FEW017 TEMPO 2303/2309 FEW018CB=
VRMG
VRMG 222300Z 2300/2406 27005KT 9999 FEW018 TEMPO 2303/2309 FEW018CB=